Terminal Aerodrome Forecast
Issued by NWS Bismarck, ND

Home | Current Version | Previous Version | Graphics & Text | Print | Product List | Glossary On
Versions: 1 2 3 4 5 6 7 8 9 10 11 12 13 14
807
FTUS43 KBIS 161132
TAFISN
TAF
KISN 161132Z 1612/1712 00000KT P6SM BKN150
     FM161500 19006KT P6SM SCT150
     FM171000 22007KT P6SM FEW150=

USA.gov is the U.S. government's official web portal to all federal, state and local government web resources and services.